sensor_id;sensor_type;location;lat;lon;timestamp;P1;durP1;ratioP1;P2;durP2;ratioP2
60730;SDS011;46580;52.114;11.674;2023-02-01T00:00:10;13.00;;;2.73;;
60730;SDS011;46580;52.114;11.674;2023-02-01T00:02:36;13.33;;;3.07;;
60730;SDS011;46580;52.114;11.674;2023-02-01T00:05:05;16.20;;;2.80;;
60730;SDS011;46580;52.114;11.674;2023-02-01T00:07:30;17.73;;;3.40;;
60730;SDS011;46580;52.114;11.674;2023-02-01T00:09:57;9.90;;;1.70;;
60730;SDS011;46580;52.114;11.674;2023-02-01T00:12:23;11.53;;;2.60;;
60730;SDS011;46580;52.114;11.674;2023-02-01T00:14:50;14.20;;;2.57;;
60730;SDS011;46580;52.114;11.674;2023-02-01T00:17:15;12.23;;;2.13;;
60730;SDS011;46580;52.114;11.674;2023-02-01T00:19:41;9.00;;;2.13;;
60730;SDS011;46580;52.114;11.674;2023-02-01T00:22:08;12.17;;;2.10;;
60730;SDS011;46580;52.114;11.674;2023-02-01T00:24:34;14.47;;;2.57;;
60730;SDS011;46580;52.114;11.674;2023-02-01T00:27:00;13.23;;;2.67;;
60730;SDS011;46580;52.114;11.674;2023-02-01T00:29:26;11.57;;;2.23;;
60730;SDS011;46580;52.114;11.674;2023-02-01T00:31:52;9.10;;;1.70;;
60730;SDS011;46580;52.114;11.674;2023-02-01T00:34:19;9.87;;;1.70;;
60730;SDS011;46580;52.114;11.674;2023-02-01T00:36:46;19.83;;;1.97;;
60730;SDS011;46580;52.114;11.674;2023-02-01T00:39:12;11.83;;;2.17;;
60730;SDS011;46580;52.114;11.674;2023-02-01T00:41:38;7.27;;;2.40;;
60730;SDS011;46580;52.114;11.674;2023-02-01T00:44:05;14.17;;;2.43;;
60730;SDS011;46580;52.114;11.674;2023-02-01T00:46:31;8.13;;;1.70;;
60730;SDS011;46580;52.114;11.674;2023-02-01T00:48:58;12.13;;;2.40;;
60730;SDS011;46580;52.114;11.674;2023-02-01T00:51:25;9.83;;;1.93;;
60730;SDS011;46580;52.114;11.674;2023-02-01T00:53:52;15.20;;;2.80;;
60730;SDS011;46580;52.114;11.674;2023-02-01T00:56:18;12.37;;;2.87;;
60730;SDS011;46580;52.114;11.674;2023-02-01T00:58:44;10.17;;;2.20;;
60730;SDS011;46580;52.114;11.674;2023-02-01T01:03:41;13.80;;;2.00;;
60730;SDS011;46580;52.114;11.674;2023-02-01T01:06:11;5.70;;;1.63;;
60730;SDS011;46580;52.114;11.674;2023-02-01T01:08:39;12.00;;;2.87;;
60730;SDS011;46580;52.114;11.674;2023-02-01T01:11:25;8.70;;;1.90;;
60730;SDS011;46580;52.114;11.674;2023-02-01T01:13:53;9.90;;;1.63;;
60730;SDS011;46580;52.114;11.674;2023-02-01T01:16:20;13.97;;;2.00;;
60730;SDS011;46580;52.114;11.674;2023-02-01T01:18:47;11.13;;;2.20;;
60730;SDS011;46580;52.114;11.674;2023-02-01T01:21:14;11.77;;;1.80;;
60730;SDS011;46580;52.114;11.674;2023-02-01T01:23:41;9.93;;;2.00;;
60730;SDS011;46580;52.114;11.674;2023-02-01T01:26:09;18.93;;;2.57;;
60730;SDS011;46580;52.114;11.674;2023-02-01T01:28:38;10.10;;;1.73;;
60730;SDS011;46580;52.114;11.674;2023-02-01T01:31:07;13.17;;;2.30;;
60730;SDS011;46580;52.114;11.674;2023-02-01T01:33:34;12.77;;;2.50;;
60730;SDS011;46580;52.114;11.674;2023-02-01T01:36:00;12.23;;;1.87;;
60730;SDS011;46580;52.114;11.674;2023-02-01T01:38:26;10.50;;;2.40;;
60730;SDS011;46580;52.114;11.674;2023-02-01T01:40:52;10.57;;;2.13;;
60730;SDS011;46580;52.114;11.674;2023-02-01T01:43:18;6.80;;;1.43;;
60730;SDS011;46580;52.114;11.674;2023-02-01T01:45:47;15.47;;;2.70;;
60730;SDS011;46580;52.114;11.674;2023-02-01T01:51:00;11.63;;;1.90;;
60730;SDS011;46580;52.114;11.674;2023-02-01T01:53:33;16.17;;;1.97;;
60730;SDS011;46580;52.114;11.674;2023-02-01T01:56:04;12.23;;;2.50;;
60730;SDS011;46580;52.114;11.674;2023-02-01T01:58:30;9.93;;;2.30;;
60730;SDS011;46580;52.114;11.674;2023-02-01T02:00:58;10.40;;;2.20;;
60730;SDS011;46580;52.114;11.674;2023-02-01T02:03:30;12.77;;;2.10;;
60730;SDS011;46580;52.114;11.674;2023-02-01T02:06:00;11.27;;;1.97;;
60730;SDS011;46580;52.114;11.674;2023-02-01T02:08:28;18.93;;;2.80;;
60730;SDS011;46580;52.114;11.674;2023-02-01T02:10:54;13.87;;;2.40;;
60730;SDS011;46580;52.114;11.674;2023-02-01T02:13:48;17.70;;;2.60;;
60730;SDS011;46580;52.114;11.674;2023-02-01T02:16:26;18.60;;;3.53;;
60730;SDS011;46580;52.114;11.674;2023-02-01T02:29:31;12.83;;;2.53;;
60730;SDS011;46580;52.114;11.674;2023-02-01T02:38:02;10.50;;;2.10;;
60730;SDS011;46580;52.114;11.674;2023-02-01T02:43:12;12.93;;;2.30;;
60730;SDS011;46580;52.114;11.674;2023-02-01T02:46:18;12.57;;;2.40;;
60730;SDS011;46580;52.114;11.674;2023-02-01T02:49:21;15.07;;;2.37;;
60730;SDS011;46580;52.114;11.674;2023-02-01T02:55:08;11.53;;;2.23;;
60730;SDS011;46580;52.114;11.674;2023-02-01T02:57:35;21.53;;;4.17;;
60730;SDS011;46580;52.114;11.674;2023-02-01T03:00:24;11.93;;;2.57;;
60730;SDS011;46580;52.114;11.674;2023-02-01T03:03:12;12.13;;;2.20;;
60730;SDS011;46580;52.114;11.674;2023-02-01T03:05:57;10.47;;;2.73;;
60730;SDS011;46580;52.114;11.674;2023-02-01T03:08:24;13.77;;;2.87;;
60730;SDS011;46580;52.114;11.674;2023-02-01T03:10:57;12.30;;;2.20;;
60730;SDS011;46580;52.114;11.674;2023-02-01T03:13:43;8.70;;;2.67;;
60730;SDS011;46580;52.114;11.674;2023-02-01T03:16:18;11.47;;;2.83;;
60730;SDS011;46580;52.114;11.674;2023-02-01T03:21:39;15.70;;;2.70;;
60730;SDS011;46580;52.114;11.674;2023-02-01T03:24:14;19.07;;;2.90;;
60730;SDS011;46580;52.114;11.674;2023-02-01T03:26:48;11.97;;;2.93;;
60730;SDS011;46580;52.114;11.674;2023-02-01T03:29:21;11.47;;;2.20;;
60730;SDS011;46580;52.114;11.674;2023-02-01T03:31:50;11.20;;;2.63;;
60730;SDS011;46580;52.114;11.674;2023-02-01T03:34:16;16.63;;;2.03;;
60730;SDS011;46580;52.114;11.674;2023-02-01T03:36:52;10.43;;;2.27;;
60730;SDS011;46580;52.114;11.674;2023-02-01T03:42:05;9.43;;;2.17;;
60730;SDS011;46580;52.114;11.674;2023-02-01T03:44:41;19.83;;;3.23;;
60730;SDS011;46580;52.114;11.674;2023-02-01T03:47:19;12.20;;;2.23;;
60730;SDS011;46580;52.114;11.674;2023-02-01T03:49:50;11.53;;;2.43;;
60730;SDS011;46580;52.114;11.674;2023-02-01T03:52:27;15.03;;;2.33;;
60730;SDS011;46580;52.114;11.674;2023-02-01T03:54:55;11.90;;;2.27;;
60730;SDS011;46580;52.114;11.674;2023-02-01T03:57:24;15.93;;;3.10;;
60730;SDS011;46580;52.114;11.674;2023-02-01T03:59:54;11.33;;;2.93;;
60730;SDS011;46580;52.114;11.674;2023-02-01T04:02:33;11.73;;;2.23;;
60730;SDS011;46580;52.114;11.674;2023-02-01T04:04:58;17.37;;;3.00;;
60730;SDS011;46580;52.114;11.674;2023-02-01T04:07:24;9.37;;;2.60;;
60730;SDS011;46580;52.114;11.674;2023-02-01T04:09:50;17.00;;;2.60;;
60730;SDS011;46580;52.114;11.674;2023-02-01T04:12:16;15.13;;;2.67;;
60730;SDS011;46580;52.114;11.674;2023-02-01T04:14:42;18.77;;;3.03;;
60730;SDS011;46580;52.114;11.674;2023-02-01T04:17:08;14.17;;;3.87;;
60730;SDS011;46580;52.114;11.674;2023-02-01T04:19:34;8.47;;;2.47;;
60730;SDS011;46580;52.114;11.674;2023-02-01T04:22:00;16.13;;;2.57;;
60730;SDS011;46580;52.114;11.674;2023-02-01T04:24:26;13.50;;;2.97;;
60730;SDS011;46580;52.114;11.674;2023-02-01T04:26:52;15.13;;;2.53;;
60730;SDS011;46580;52.114;11.674;2023-02-01T04:29:18;9.93;;;1.87;;
60730;SDS011;46580;52.114;11.674;2023-02-01T04:31:44;14.50;;;2.83;;
60730;SDS011;46580;52.114;11.674;2023-02-01T04:34:11;8.90;;;2.63;;
60730;SDS011;46580;52.114;11.674;2023-02-01T04:36:36;12.73;;;2.10;;
60730;SDS011;46580;52.114;11.674;2023-02-01T04:39:02;11.33;;;2.20;;
60730;SDS011;46580;52.114;11.674;2023-02-01T04:41:28;13.53;;;1.97;;
60730;SDS011;46580;52.114;11.674;2023-02-01T04:43:55;18.93;;;2.37;;
60730;SDS011;46580;52.114;11.674;2023-02-01T04:46:20;23.03;;;3.87;;
60730;SDS011;46580;52.114;11.674;2023-02-01T04:48:46;8.60;;;2.00;;
60730;SDS011;46580;52.114;11.674;2023-02-01T04:51:12;17.53;;;3.17;;
60730;SDS011;46580;52.114;11.674;2023-02-01T04:53:40;9.00;;;2.90;;
60730;SDS011;46580;52.114;11.674;2023-02-01T04:56:06;16.90;;;2.13;;
60730;SDS011;46580;52.114;11.674;2023-02-01T04:58:32;13.10;;;2.77;;
60730;SDS011;46580;52.114;11.674;2023-02-01T05:00:58;12.10;;;2.57;;
60730;SDS011;46580;52.114;11.674;2023-02-01T05:03:24;17.60;;;2.93;;
60730;SDS011;46580;52.114;11.674;2023-02-01T05:05:50;15.17;;;2.63;;
60730;SDS011;46580;52.114;11.674;2023-02-01T05:08:18;11.20;;;2.10;;
60730;SDS011;46580;52.114;11.674;2023-02-01T05:10:47;8.70;;;2.30;;
60730;SDS011;46580;52.114;11.674;2023-02-01T05:13:12;14.10;;;3.33;;
60730;SDS011;46580;52.114;11.674;2023-02-01T05:15:56;13.33;;;3.20;;
60730;SDS011;46580;52.114;11.674;2023-02-01T05:18:22;9.10;;;2.43;;
60730;SDS011;46580;52.114;11.674;2023-02-01T05:20:48;13.00;;;2.67;;
60730;SDS011;46580;52.114;11.674;2023-02-01T05:23:13;11.50;;;2.90;;
60730;SDS011;46580;52.114;11.674;2023-02-01T05:25:41;14.17;;;2.87;;
60730;SDS011;46580;52.114;11.674;2023-02-01T05:28:06;11.50;;;2.73;;
60730;SDS011;46580;52.114;11.674;2023-02-01T05:30:32;12.63;;;2.70;;
60730;SDS011;46580;52.114;11.674;2023-02-01T05:33:00;9.90;;;1.97;;
60730;SDS011;46580;52.114;11.674;2023-02-01T05:35:27;15.73;;;2.47;;
60730;SDS011;46580;52.114;11.674;2023-02-01T05:37:52;12.80;;;3.07;;
60730;SDS011;46580;52.114;11.674;2023-02-01T05:40:18;13.97;;;3.43;;
60730;SDS011;46580;52.114;11.674;2023-02-01T05:42:44;11.40;;;3.07;;
60730;SDS011;46580;52.114;11.674;2023-02-01T05:45:09;10.67;;;2.83;;
60730;SDS011;46580;52.114;11.674;2023-02-01T05:47:35;12.10;;;2.50;;
60730;SDS011;46580;52.114;11.674;2023-02-01T05:50:00;11.83;;;2.93;;
60730;SDS011;46580;52.114;11.674;2023-02-01T05:52:26;16.40;;;3.03;;
60730;SDS011;46580;52.114;11.674;2023-02-01T05:54:51;14.17;;;2.57;;
60730;SDS011;46580;52.114;11.674;2023-02-01T05:57:17;17.17;;;3.43;;
60730;SDS011;46580;52.114;11.674;2023-02-01T05:59:44;9.27;;;2.33;;
60730;SDS011;46580;52.114;11.674;2023-02-01T06:02:11;12.03;;;3.40;;
60730;SDS011;46580;52.114;11.674;2023-02-01T06:04:37;7.87;;;2.23;;
60730;SDS011;46580;52.114;11.674;2023-02-01T06:07:03;11.30;;;2.40;;
60730;SDS011;46580;52.114;11.674;2023-02-01T06:09:28;12.20;;;2.73;;
60730;SDS011;46580;52.114;11.674;2023-02-01T06:11:54;11.93;;;2.60;;
60730;SDS011;46580;52.114;11.674;2023-02-01T06:14:23;11.60;;;2.60;;
60730;SDS011;46580;52.114;11.674;2023-02-01T06:16:49;17.50;;;2.20;;
60730;SDS011;46580;52.114;11.674;2023-02-01T06:19:14;10.53;;;2.67;;
60730;SDS011;46580;52.114;11.674;2023-02-01T06:21:40;13.73;;;3.33;;
60730;SDS011;46580;52.114;11.674;2023-02-01T06:24:06;11.80;;;2.47;;
60730;SDS011;46580;52.114;11.674;2023-02-01T06:26:32;19.07;;;3.90;;
60730;SDS011;46580;52.114;11.674;2023-02-01T06:28:58;14.10;;;2.90;;
60730;SDS011;46580;52.114;11.674;2023-02-01T06:31:24;10.77;;;2.70;;
60730;SDS011;46580;52.114;11.674;2023-02-01T06:33:50;9.17;;;2.80;;
60730;SDS011;46580;52.114;11.674;2023-02-01T06:36:16;11.47;;;4.00;;
60730;SDS011;46580;52.114;11.674;2023-02-01T06:38:45;9.80;;;2.40;;
60730;SDS011;46580;52.114;11.674;2023-02-01T06:41:12;10.53;;;3.03;;
60730;SDS011;46580;52.114;11.674;2023-02-01T06:43:38;14.17;;;3.57;;
60730;SDS011;46580;52.114;11.674;2023-02-01T06:46:05;16.43;;;2.90;;
60730;SDS011;46580;52.114;11.674;2023-02-01T06:48:34;15.43;;;3.37;;
60730;SDS011;46580;52.114;11.674;2023-02-01T06:50:59;15.20;;;3.13;;
60730;SDS011;46580;52.114;11.674;2023-02-01T06:53:26;9.37;;;2.60;;
60730;SDS011;46580;52.114;11.674;2023-02-01T06:55:52;16.93;;;3.50;;
60730;SDS011;46580;52.114;11.674;2023-02-01T06:58:18;13.20;;;3.83;;
60730;SDS011;46580;52.114;11.674;2023-02-01T07:00:44;9.53;;;3.50;;
60730;SDS011;46580;52.114;11.674;2023-02-01T07:03:10;9.93;;;3.30;;
60730;SDS011;46580;52.114;11.674;2023-02-01T07:05:35;10.50;;;3.07;;
60730;SDS011;46580;52.114;11.674;2023-02-01T07:08:00;12.10;;;3.40;;
60730;SDS011;46580;52.114;11.674;2023-02-01T07:10:26;9.00;;;2.77;;
60730;SDS011;46580;52.114;11.674;2023-02-01T07:12:52;11.07;;;2.63;;
60730;SDS011;46580;52.114;11.674;2023-02-01T07:15:17;6.87;;;2.53;;
60730;SDS011;46580;52.114;11.674;2023-02-01T07:17:44;11.50;;;2.83;;
60730;SDS011;46580;52.114;11.674;2023-02-01T07:20:10;12.87;;;3.00;;
60730;SDS011;46580;52.114;11.674;2023-02-01T07:22:36;11.37;;;3.10;;
60730;SDS011;46580;52.114;11.674;2023-02-01T07:25:04;7.70;;;2.30;;
60730;SDS011;46580;52.114;11.674;2023-02-01T07:27:30;12.97;;;3.17;;
60730;SDS011;46580;52.114;11.674;2023-02-01T07:29:59;7.63;;;2.37;;
60730;SDS011;46580;52.114;11.674;2023-02-01T07:32:27;11.60;;;3.10;;
60730;SDS011;46580;52.114;11.674;2023-02-01T07:34:52;15.37;;;3.83;;
60730;SDS011;46580;52.114;11.674;2023-02-01T07:37:18;7.63;;;2.40;;
60730;SDS011;46580;52.114;11.674;2023-02-01T07:39:44;13.17;;;3.00;;
60730;SDS011;46580;52.114;11.674;2023-02-01T07:42:10;7.77;;;2.20;;
60730;SDS011;46580;52.114;11.674;2023-02-01T07:44:36;7.60;;;2.17;;
60730;SDS011;46580;52.114;11.674;2023-02-01T07:47:02;11.93;;;2.80;;
60730;SDS011;46580;52.114;11.674;2023-02-01T07:49:28;9.40;;;2.57;;
60730;SDS011;46580;52.114;11.674;2023-02-01T07:51:55;12.00;;;2.23;;
60730;SDS011;46580;52.114;11.674;2023-02-01T07:54:20;7.73;;;2.30;;
60730;SDS011;46580;52.114;11.674;2023-02-01T07:56:46;10.40;;;3.20;;
60730;SDS011;46580;52.114;11.674;2023-02-01T07:59:12;13.70;;;2.93;;
60730;SDS011;46580;52.114;11.674;2023-02-01T08:01:40;9.93;;;2.83;;
60730;SDS011;46580;52.114;11.674;2023-02-01T08:04:07;11.60;;;2.73;;
60730;SDS011;46580;52.114;11.674;2023-02-01T08:06:36;13.30;;;2.50;;
60730;SDS011;46580;52.114;11.674;2023-02-01T08:09:03;11.33;;;2.63;;
60730;SDS011;46580;52.114;11.674;2023-02-01T08:11:30;7.97;;;2.30;;
60730;SDS011;46580;52.114;11.674;2023-02-01T08:13:57;7.60;;;2.43;;
60730;SDS011;46580;52.114;11.674;2023-02-01T08:16:23;7.40;;;1.90;;
60730;SDS011;46580;52.114;11.674;2023-02-01T08:18:49;9.33;;;2.83;;
60730;SDS011;46580;52.114;11.674;2023-02-01T08:21:16;10.67;;;2.20;;
60730;SDS011;46580;52.114;11.674;2023-02-01T08:23:44;7.90;;;2.10;;
60730;SDS011;46580;52.114;11.674;2023-02-01T08:26:15;8.83;;;2.17;;
60730;SDS011;46580;52.114;11.674;2023-02-01T08:28:43;11.90;;;2.70;;
60730;SDS011;46580;52.114;11.674;2023-02-01T08:31:12;7.40;;;2.53;;
60730;SDS011;46580;52.114;11.674;2023-02-01T08:33:41;7.03;;;1.80;;
60730;SDS011;46580;52.114;11.674;2023-02-01T08:36:09;5.50;;;1.90;;
60730;SDS011;46580;52.114;11.674;2023-02-01T08:38:37;6.13;;;2.00;;
60730;SDS011;46580;52.114;11.674;2023-02-01T08:41:07;6.03;;;2.30;;
60730;SDS011;46580;52.114;11.674;2023-02-01T08:43:34;8.47;;;2.83;;
60730;SDS011;46580;52.114;11.674;2023-02-01T08:46:02;11.70;;;2.40;;
60730;SDS011;46580;52.114;11.674;2023-02-01T08:48:28;10.07;;;2.67;;
60730;SDS011;46580;52.114;11.674;2023-02-01T08:50:55;7.40;;;2.60;;
60730;SDS011;46580;52.114;11.674;2023-02-01T08:53:20;8.93;;;3.17;;
60730;SDS011;46580;52.114;11.674;2023-02-01T08:55:47;6.73;;;2.83;;
60730;SDS011;46580;52.114;11.674;2023-02-01T08:58:14;10.73;;;3.50;;
60730;SDS011;46580;52.114;11.674;2023-02-01T09:00:42;6.23;;;2.13;;
60730;SDS011;46580;52.114;11.674;2023-02-01T09:03:10;6.80;;;1.90;;
60730;SDS011;46580;52.114;11.674;2023-02-01T09:05:35;8.43;;;1.80;;
60730;SDS011;46580;52.114;11.674;2023-02-01T09:08:01;4.23;;;1.40;;
60730;SDS011;46580;52.114;11.674;2023-02-01T09:10:27;8.77;;;2.07;;
60730;SDS011;46580;52.114;11.674;2023-02-01T09:12:53;8.20;;;1.70;;
60730;SDS011;46580;52.114;11.674;2023-02-01T09:15:19;6.63;;;1.73;;
60730;SDS011;46580;52.114;11.674;2023-02-01T09:17:44;7.23;;;1.60;;
60730;SDS011;46580;52.114;11.674;2023-02-01T09:20:11;5.83;;;2.00;;
60730;SDS011;46580;52.114;11.674;2023-02-01T09:22:37;4.07;;;1.50;;
60730;SDS011;46580;52.114;11.674;2023-02-01T09:25:04;8.13;;;2.53;;
60730;SDS011;46580;52.114;11.674;2023-02-01T09:27:31;8.93;;;3.33;;
60730;SDS011;46580;52.114;11.674;2023-02-01T09:29:57;12.10;;;4.00;;
60730;SDS011;46580;52.114;11.674;2023-02-01T09:32:23;5.60;;;2.47;;
60730;SDS011;46580;52.114;11.674;2023-02-01T09:34:50;4.97;;;1.50;;
60730;SDS011;46580;52.114;11.674;2023-02-01T09:37:17;4.47;;;1.53;;
60730;SDS011;46580;52.114;11.674;2023-02-01T09:39:43;14.90;;;2.60;;
60730;SDS011;46580;52.114;11.674;2023-02-01T09:42:26;5.37;;;1.97;;
60730;SDS011;46580;52.114;11.674;2023-02-01T09:45:10;4.60;;;1.20;;
60730;SDS011;46580;52.114;11.674;2023-02-01T09:48:15;4.80;;;1.90;;
60730;SDS011;46580;52.114;11.674;2023-02-01T09:50:47;5.50;;;1.40;;
60730;SDS011;46580;52.114;11.674;2023-02-01T09:53:20;5.80;;;1.53;;
60730;SDS011;46580;52.114;11.674;2023-02-01T09:55:51;9.07;;;1.67;;
60730;SDS011;46580;52.114;11.674;2023-02-01T10:01:21;5.17;;;1.13;;
60730;SDS011;46580;52.114;11.674;2023-02-01T10:03:48;5.77;;;1.70;;
60730;SDS011;46580;52.114;11.674;2023-02-01T10:06:23;4.60;;;1.33;;
60730;SDS011;46580;52.114;11.674;2023-02-01T10:25:26;4.53;;;1.73;;
60730;SDS011;46580;52.114;11.674;2023-02-01T10:28:00;5.70;;;1.93;;
60730;SDS011;46580;52.114;11.674;2023-02-01T10:30:33;5.80;;;2.27;;
60730;SDS011;46580;52.114;11.674;2023-02-01T10:33:22;8.50;;;1.97;;
60730;SDS011;46580;52.114;11.674;2023-02-01T10:36:13;7.90;;;2.27;;
60730;SDS011;46580;52.114;11.674;2023-02-01T10:38:55;5.40;;;1.77;;
60730;SDS011;46580;52.114;11.674;2023-02-01T10:41:29;6.17;;;1.53;;
60730;SDS011;46580;52.114;11.674;2023-02-01T10:43:59;5.67;;;1.67;;
60730;SDS011;46580;52.114;11.674;2023-02-01T10:46:29;5.47;;;1.87;;
60730;SDS011;46580;52.114;11.674;2023-02-01T10:48:55;3.87;;;1.87;;
60730;SDS011;46580;52.114;11.674;2023-02-01T10:54:19;13.67;;;2.37;;
60730;SDS011;46580;52.114;11.674;2023-02-01T10:56:46;12.20;;;3.23;;
60730;SDS011;46580;52.114;11.674;2023-02-01T10:59:17;8.53;;;2.87;;
60730;SDS011;46580;52.114;11.674;2023-02-01T11:01:45;5.97;;;2.70;;
60730;SDS011;46580;52.114;11.674;2023-02-01T11:04:14;10.53;;;3.50;;
60730;SDS011;46580;52.114;11.674;2023-02-01T11:06:46;7.40;;;2.53;;
60730;SDS011;46580;52.114;11.674;2023-02-01T11:14:20;11.30;;;2.00;;
60730;SDS011;46580;52.114;11.674;2023-02-01T11:16:57;9.93;;;2.43;;
60730;SDS011;46580;52.114;11.674;2023-02-01T11:19:29;7.07;;;2.10;;
60730;SDS011;46580;52.114;11.674;2023-02-01T11:21:56;7.87;;;2.97;;
60730;SDS011;46580;52.114;11.674;2023-02-01T11:24:26;7.13;;;2.00;;
60730;SDS011;46580;52.114;11.674;2023-02-01T11:26:55;6.80;;;2.43;;
60730;SDS011;46580;52.114;11.674;2023-02-01T11:29:23;12.97;;;2.70;;
60730;SDS011;46580;52.114;11.674;2023-02-01T11:31:55;8.20;;;2.37;;
60730;SDS011;46580;52.114;11.674;2023-02-01T11:34:24;8.47;;;2.63;;
60730;SDS011;46580;52.114;11.674;2023-02-01T11:37:00;16.07;;;3.60;;
60730;SDS011;46580;52.114;11.674;2023-02-01T11:39:29;11.07;;;2.40;;
60730;SDS011;46580;52.114;11.674;2023-02-01T11:42:04;8.37;;;2.27;;
60730;SDS011;46580;52.114;11.674;2023-02-01T11:44:41;9.70;;;2.07;;
60730;SDS011;46580;52.114;11.674;2023-02-01T11:49:47;12.67;;;2.30;;
60730;SDS011;46580;52.114;11.674;2023-02-01T11:58:11;12.23;;;2.70;;
60730;SDS011;46580;52.114;11.674;2023-02-01T12:00:56;9.40;;;3.07;;
60730;SDS011;46580;52.114;11.674;2023-02-01T12:14:20;9.20;;;2.40;;
60730;SDS011;46580;52.114;11.674;2023-02-01T12:23:01;9.70;;;1.70;;
60730;SDS011;46580;52.114;11.674;2023-02-01T12:25:56;12.60;;;2.70;;
60730;SDS011;46580;52.114;11.674;2023-02-01T12:28:39;8.03;;;2.07;;
60730;SDS011;46580;52.114;11.674;2023-02-01T12:39:22;8.87;;;2.63;;
60730;SDS011;46580;52.114;11.674;2023-02-01T12:44:42;8.27;;;1.57;;
60730;SDS011;46580;52.114;11.674;2023-02-01T12:47:29;7.60;;;2.07;;
60730;SDS011;46580;52.114;11.674;2023-02-01T12:50:01;5.40;;;1.50;;
60730;SDS011;46580;52.114;11.674;2023-02-01T12:52:42;6.30;;;2.07;;
60730;SDS011;46580;52.114;11.674;2023-02-01T12:55:29;9.93;;;1.63;;
60730;SDS011;46580;52.114;11.674;2023-02-01T12:58:06;9.07;;;2.07;;
60730;SDS011;46580;52.114;11.674;2023-02-01T13:00:40;7.23;;;1.70;;
60730;SDS011;46580;52.114;11.674;2023-02-01T13:06:10;8.67;;;2.10;;
60730;SDS011;46580;52.114;11.674;2023-02-01T13:11:27;6.63;;;1.70;;
60730;SDS011;46580;52.114;11.674;2023-02-01T13:14:19;7.77;;;1.53;;
60730;SDS011;46580;52.114;11.674;2023-02-01T13:16:43;11.13;;;1.77;;
60730;SDS011;46580;52.114;11.674;2023-02-01T13:19:22;6.20;;;2.00;;
60730;SDS011;46580;52.114;11.674;2023-02-01T13:21:58;7.27;;;1.83;;
60730;SDS011;46580;52.114;11.674;2023-02-01T13:24:33;4.03;;;1.37;;
60730;SDS011;46580;52.114;11.674;2023-02-01T13:27:04;8.73;;;1.90;;
60730;SDS011;46580;52.114;11.674;2023-02-01T13:29:30;6.70;;;1.70;;
60730;SDS011;46580;52.114;11.674;2023-02-01T13:32:09;7.17;;;1.70;;
60730;SDS011;46580;52.114;11.674;2023-02-01T13:35:12;10.77;;;1.83;;
60730;SDS011;46580;52.114;11.674;2023-02-01T13:43:49;8.80;;;2.00;;
60730;SDS011;46580;52.114;11.674;2023-02-01T13:46:17;9.33;;;2.03;;
60730;SDS011;46580;52.114;11.674;2023-02-01T13:48:51;7.60;;;1.80;;
60730;SDS011;46580;52.114;11.674;2023-02-01T13:51:30;14.57;;;2.67;;
60730;SDS011;46580;52.114;11.674;2023-02-01T13:54:00;8.23;;;1.87;;
60730;SDS011;46580;52.114;11.674;2023-02-01T13:56:26;10.27;;;2.40;;
60730;SDS011;46580;52.114;11.674;2023-02-01T13:58:52;7.47;;;2.57;;
60730;SDS011;46580;52.114;11.674;2023-02-01T14:03:56;7.73;;;2.03;;
60730;SDS011;46580;52.114;11.674;2023-02-01T14:09:39;11.17;;;2.13;;
60730;SDS011;46580;52.114;11.674;2023-02-01T14:11:58;11.67;;;1.73;;
60730;SDS011;46580;52.114;11.674;2023-02-01T14:14:44;6.10;;;2.30;;
60730;SDS011;46580;52.114;11.674;2023-02-01T14:19:36;5.67;;;2.57;;
60730;SDS011;46580;52.114;11.674;2023-02-01T14:24:40;7.40;;;2.50;;
60730;SDS011;46580;52.114;11.674;2023-02-01T14:27:16;5.27;;;2.67;;
60730;SDS011;46580;52.114;11.674;2023-02-01T14:29:59;8.00;;;2.87;;
60730;SDS011;46580;52.114;11.674;2023-02-01T14:32:39;7.07;;;2.73;;
60730;SDS011;46580;52.114;11.674;2023-02-01T14:35:18;5.57;;;2.47;;
60730;SDS011;46580;52.114;11.674;2023-02-01T14:37:45;7.30;;;3.00;;
60730;SDS011;46580;52.114;11.674;2023-02-01T14:40:17;9.33;;;2.87;;
60730;SDS011;46580;52.114;11.674;2023-02-01T14:42:48;5.37;;;2.80;;
60730;SDS011;46580;52.114;11.674;2023-02-01T14:47:43;3.00;;;2.10;;
60730;SDS011;46580;52.114;11.674;2023-02-01T14:53:04;7.73;;;2.07;;
60730;SDS011;46580;52.114;11.674;2023-02-01T15:00:54;3.63;;;1.97;;
60730;SDS011;46580;52.114;11.674;2023-02-01T15:03:24;6.33;;;1.57;;
60730;SDS011;46580;52.114;11.674;2023-02-01T15:06:01;5.50;;;1.30;;
60730;SDS011;46580;52.114;11.674;2023-02-01T15:08:31;3.87;;;1.20;;
60730;SDS011;46580;52.114;11.674;2023-02-01T15:11:01;2.43;;;1.10;;
60730;SDS011;46580;52.114;11.674;2023-02-01T15:13:37;0.77;;;0.60;;
60730;SDS011;46580;52.114;11.674;2023-02-01T15:18:30;1.83;;;0.87;;
60730;SDS011;46580;52.114;11.674;2023-02-01T15:20:57;2.13;;;0.60;;
60730;SDS011;46580;52.114;11.674;2023-02-01T15:23:24;1.40;;;0.73;;
60730;SDS011;46580;52.114;11.674;2023-02-01T15:25:50;1.47;;;0.60;;
60730;SDS011;46580;52.114;11.674;2023-02-01T15:28:16;2.70;;;0.70;;
60730;SDS011;46580;52.114;11.674;2023-02-01T15:30:59;2.63;;;0.80;;
60730;SDS011;46580;52.114;11.674;2023-02-01T15:33:26;2.13;;;0.90;;
60730;SDS011;46580;52.114;11.674;2023-02-01T15:38:36;1.33;;;0.83;;
60730;SDS011;46580;52.114;11.674;2023-02-01T15:41:05;2.20;;;0.70;;
60730;SDS011;46580;52.114;11.674;2023-02-01T15:43:42;3.03;;;0.87;;
60730;SDS011;46580;52.114;11.674;2023-02-01T15:46:11;1.27;;;0.60;;
60730;SDS011;46580;52.114;11.674;2023-02-01T15:48:44;2.57;;;0.63;;
60730;SDS011;46580;52.114;11.674;2023-02-01T15:51:13;2.23;;;0.30;;
60730;SDS011;46580;52.114;11.674;2023-02-01T15:59:56;2.03;;;0.67;;
60730;SDS011;46580;52.114;11.674;2023-02-01T16:02:29;1.17;;;0.73;;
60730;SDS011;46580;52.114;11.674;2023-02-01T16:04:59;2.43;;;0.60;;
60730;SDS011;46580;52.114;11.674;2023-02-01T16:07:27;2.53;;;0.60;;
60730;SDS011;46580;52.114;11.674;2023-02-01T16:09:57;2.43;;;0.83;;
60730;SDS011;46580;52.114;11.674;2023-02-01T16:12:27;2.73;;;0.90;;
60730;SDS011;46580;52.114;11.674;2023-02-01T16:14:56;3.57;;;0.70;;
60730;SDS011;46580;52.114;11.674;2023-02-01T16:17:22;5.03;;;0.93;;
60730;SDS011;46580;52.114;11.674;2023-02-01T16:19:48;3.67;;;0.80;;
60730;SDS011;46580;52.114;11.674;2023-02-01T16:22:14;5.17;;;1.30;;
60730;SDS011;46580;52.114;11.674;2023-02-01T16:24:39;3.30;;;1.50;;
60730;SDS011;46580;52.114;11.674;2023-02-01T16:27:04;6.23;;;2.20;;
60730;SDS011;46580;52.114;11.674;2023-02-01T16:29:32;4.27;;;1.63;;
60730;SDS011;46580;52.114;11.674;2023-02-01T16:31:57;5.23;;;2.13;;
60730;SDS011;46580;52.114;11.674;2023-02-01T16:34:25;6.73;;;1.73;;
60730;SDS011;46580;52.114;11.674;2023-02-01T16:36:50;5.57;;;2.33;;
60730;SDS011;46580;52.114;11.674;2023-02-01T16:39:18;5.90;;;1.97;;
60730;SDS011;46580;52.114;11.674;2023-02-01T16:41:44;4.50;;;2.30;;
60730;SDS011;46580;52.114;11.674;2023-02-01T16:44:10;3.93;;;1.43;;
60730;SDS011;46580;52.114;11.674;2023-02-01T16:46:39;3.63;;;1.20;;
60730;SDS011;46580;52.114;11.674;2023-02-01T16:49:15;7.37;;;1.57;;
60730;SDS011;46580;52.114;11.674;2023-02-01T16:51:44;2.63;;;0.93;;
60730;SDS011;46580;52.114;11.674;2023-02-01T16:54:10;6.00;;;1.27;;
60730;SDS011;46580;52.114;11.674;2023-02-01T16:56:35;6.10;;;1.33;;
60730;SDS011;46580;52.114;11.674;2023-02-01T16:59:04;4.43;;;1.73;;
60730;SDS011;46580;52.114;11.674;2023-02-01T17:01:30;5.27;;;1.50;;
60730;SDS011;46580;52.114;11.674;2023-02-01T17:03:55;4.07;;;1.13;;